createdAt,value
2022-08-25T00:00:17.865Z,3.20
2022-08-25T00:02:55.648Z,3.50
2022-08-25T00:05:29.465Z,3.87
2022-08-25T00:08:00.878Z,3.20
2022-08-25T00:10:28.595Z,3.60
2022-08-25T00:12:55.854Z,3.43
2022-08-25T00:15:23.666Z,3.50
2022-08-25T00:17:51.556Z,3.17
2022-08-25T00:20:19.460Z,3.60
2022-08-25T00:22:46.828Z,3.20
2022-08-25T00:25:14.083Z,3.10
2022-08-25T00:27:41.573Z,3.37
2022-08-25T00:30:10.147Z,3.90
2022-08-25T00:32:40.366Z,3.50
2022-08-25T00:39:10.195Z,3.07
2022-08-25T00:41:40.356Z,3.47
2022-08-25T00:44:11.265Z,3.80
2022-08-25T00:46:47.715Z,3.27
2022-08-25T00:49:35.509Z,3.27
2022-08-25T00:56:03.708Z,3.17
2022-08-25T00:58:34.580Z,3.53
2022-08-25T01:05:11.816Z,3.17
2022-08-25T01:11:49.182Z,3.40
2022-08-25T01:14:20.314Z,3.50
2022-08-25T01:21:18.532Z,3.17
2022-08-25T01:23:47.400Z,3.50
2022-08-25T01:26:30.752Z,3.33
2022-08-25T01:29:49.900Z,3.33
2022-08-25T01:32:17.208Z,3.40
2022-08-25T01:38:44.401Z,3.57
2022-08-25T01:41:11.825Z,3.53
2022-08-25T01:43:39.454Z,3.70
2022-08-25T01:46:06.768Z,3.33
2022-08-25T01:53:11.743Z,3.33
2022-08-25T01:55:39.121Z,3.23
2022-08-25T01:58:06.740Z,3.53
2022-08-25T02:00:34.044Z,3.47
2022-08-25T02:03:01.244Z,3.33
2022-08-25T02:05:29.741Z,3.60
2022-08-25T02:07:59.970Z,3.33
2022-08-25T02:10:27.189Z,3.60
2022-08-25T02:17:05.612Z,3.43
2022-08-25T02:19:33.592Z,3.50
2022-08-25T02:22:01.920Z,3.40
2022-08-25T02:24:29.597Z,3.37
2022-08-25T02:27:43.838Z,4.03
2022-08-25T02:34:38.503Z,4.10
2022-08-25T02:37:05.743Z,3.80
2022-08-25T02:39:32.910Z,3.73
2022-08-25T02:45:59.751Z,3.80
2022-08-25T02:48:27.102Z,4.30
2022-08-25T02:55:07.337Z,3.80
2022-08-25T02:57:34.835Z,3.80
2022-08-25T03:04:24.111Z,4.20
2022-08-25T03:06:51.436Z,3.67
2022-08-25T03:09:18.722Z,3.73
2022-08-25T03:19:55.629Z,3.50
2022-08-25T03:22:22.837Z,3.73
2022-08-25T03:24:50.080Z,3.50
2022-08-25T03:31:27.358Z,3.20
2022-08-25T03:33:55.574Z,3.60
2022-08-25T03:36:23.934Z,3.50
2022-08-25T03:38:52.314Z,3.83
2022-08-25T03:41:31.676Z,3.80
2022-08-25T03:44:01.383Z,3.80
2022-08-25T03:46:33.863Z,3.90
2022-08-25T03:49:04.036Z,3.43
2022-08-25T03:51:38.354Z,3.93
2022-08-25T03:54:07.381Z,4.10
2022-08-25T03:56:34.735Z,3.50
2022-08-25T03:59:02.268Z,3.77
2022-08-25T04:09:39.356Z,3.70
2022-08-25T04:12:06.915Z,4.17
2022-08-25T04:14:34.391Z,4.27
2022-08-25T04:17:04.309Z,4.00
2022-08-25T04:19:31.602Z,4.70
2022-08-25T04:21:58.838Z,3.93
2022-08-25T04:24:26.244Z,4.03
2022-08-25T04:26:53.940Z,4.53
2022-08-25T04:29:25.331Z,4.87
2022-08-25T04:31:55.212Z,4.50
2022-08-25T04:34:30.507Z,4.40
2022-08-25T04:37:05.055Z,5.60
2022-08-25T04:39:32.870Z,5.87
2022-08-25T04:46:20.171Z,8.87
2022-08-25T04:48:50.921Z,8.77
2022-08-25T04:55:18.052Z,6.57
2022-08-25T04:57:45.340Z,6.93
2022-08-25T05:00:13.556Z,5.83
2022-08-25T05:02:41.007Z,5.77
2022-08-25T05:09:19.886Z,5.83
2022-08-25T05:11:49.438Z,5.40
2022-08-25T05:14:16.807Z,6.57
2022-08-25T05:16:44.362Z,6.90
2022-08-25T05:19:11.737Z,5.97
2022-08-25T05:21:39.035Z,6.07
2022-08-25T05:32:06.697Z,5.70
2022-08-25T05:34:33.985Z,5.70
2022-08-25T05:41:18.994Z,4.23
2022-08-25T05:43:49.554Z,5.13
2022-08-25T05:46:19.459Z,5.77
2022-08-25T05:48:47.035Z,5.37
2022-08-25T05:55:24.056Z,5.20
2022-08-25T05:57:51.290Z,5.40
2022-08-25T06:00:18.889Z,6.47
2022-08-25T06:02:46.188Z,6.40
2022-08-25T06:05:23.455Z,6.33
2022-08-25T06:07:53.041Z,6.13
2022-08-25T06:10:20.710Z,5.70
2022-08-25T06:12:49.549Z,5.67
2022-08-25T06:15:21.880Z,5.00
2022-08-25T06:17:50.848Z,4.80
2022-08-25T06:21:12.030Z,5.60
2022-08-25T06:23:40.471Z,6.33
2022-08-25T06:30:11.756Z,5.43
2022-08-25T06:32:41.814Z,5.73
2022-08-25T06:38:50.261Z,5.93
2022-08-25T06:41:17.518Z,6.20
2022-08-25T06:43:49.024Z,5.70
2022-08-25T06:46:35.871Z,5.20
2022-08-25T06:53:06.511Z,5.13
2022-08-25T06:55:34.336Z,5.20
2022-08-25T06:58:02.139Z,5.07
2022-08-25T07:00:33.549Z,4.80
2022-08-25T07:07:10.331Z,4.40
2022-08-25T07:10:52.208Z,4.67
2022-08-25T07:13:19.535Z,4.77
2022-08-25T07:15:46.962Z,4.50
2022-08-25T07:18:14.290Z,4.43
2022-08-25T07:20:41.651Z,4.27
2022-08-25T07:27:18.672Z,4.20
2022-08-25T07:29:45.931Z,4.43
2022-08-25T07:32:13.817Z,4.70
2022-08-25T07:38:50.504Z,3.90
2022-08-25T07:41:17.940Z,4.17
2022-08-25T07:47:25.600Z,4.63
2022-08-25T07:49:52.849Z,4.20
2022-08-25T07:52:20.339Z,4.23
2022-08-25T07:54:47.571Z,4.90
2022-08-25T07:57:15.023Z,4.97
2022-08-25T07:59:43.127Z,4.00
2022-08-25T08:02:17.779Z,4.60
2022-08-25T08:04:51.239Z,4.80
2022-08-25T08:07:36.962Z,4.17
2022-08-25T08:14:31.725Z,4.50
2022-08-25T08:21:19.906Z,4.40
2022-08-25T08:23:48.345Z,4.57
2022-08-25T08:26:17.561Z,4.40
2022-08-25T08:28:45.299Z,3.97
2022-08-25T08:31:25.510Z,4.10
2022-08-25T08:33:56.943Z,4.23
2022-08-25T08:36:25.758Z,4.03
2022-08-25T08:38:53.529Z,4.40
2022-08-25T08:42:07.645Z,4.30
2022-08-25T08:45:06.118Z,4.20
2022-08-25T08:48:32.522Z,4.13
2022-08-25T08:51:09.873Z,4.27
2022-08-25T08:53:54.772Z,4.30
2022-08-25T09:00:25.879Z,3.93
2022-08-25T09:03:07.689Z,3.70
2022-08-25T09:09:46.069Z,3.50
2022-08-25T09:16:45.927Z,3.55
2022-08-25T09:19:28.281Z,3.30
2022-08-25T09:22:35.568Z,3.25
2022-08-25T09:25:29.402Z,3.17
2022-08-25T09:28:20.752Z,2.95
2022-08-25T09:35:02.747Z,3.10
2022-08-25T09:37:30.587Z,3.20
2022-08-25T09:39:59.801Z,3.17
2022-08-25T09:42:49.881Z,3.17
2022-08-25T09:49:16.923Z,3.17
2022-08-25T09:51:44.203Z,3.10
2022-08-25T09:54:14.439Z,3.38
2022-08-25T10:04:40.029Z,2.90
2022-08-25T10:07:29.237Z,3.50
2022-08-25T10:10:03.633Z,2.40
2022-08-25T10:12:36.729Z,2.80
2022-08-25T10:19:22.704Z,2.85
2022-08-25T10:22:20.614Z,2.83
2022-08-25T10:24:49.472Z,3.00
2022-08-25T10:31:32.622Z,2.40
2022-08-25T10:34:25.486Z,2.60
2022-08-25T10:37:20.470Z,2.70
2022-08-25T10:40:07.113Z,2.72
2022-08-25T10:43:07.406Z,2.55
2022-08-25T10:49:49.925Z,2.67
2022-08-25T10:52:31.926Z,3.00
2022-08-25T10:55:06.627Z,2.60
2022-08-25T10:57:58.045Z,2.58
2022-08-25T11:00:33.346Z,2.58
2022-08-25T11:07:25.141Z,2.58
2022-08-25T11:10:45.835Z,2.60
2022-08-25T11:13:43.306Z,2.67
2022-08-25T11:16:28.626Z,3.08
2022-08-25T11:23:29.144Z,2.45
2022-08-25T11:26:08.311Z,2.53
2022-08-25T11:29:02.899Z,2.75
2022-08-25T11:40:11.553Z,2.75
2022-08-25T11:43:28.368Z,3.08
2022-08-25T11:46:27.830Z,2.60
2022-08-25T11:49:33.797Z,2.60
2022-08-25T11:52:03.174Z,2.72
2022-08-25T11:54:44.705Z,2.72
2022-08-25T11:57:24.915Z,2.55
2022-08-25T11:59:54.853Z,2.63
2022-08-25T12:06:33.747Z,2.83
2022-08-25T12:09:01.022Z,2.72
2022-08-25T12:15:42.857Z,2.67
2022-08-25T12:22:09.589Z,2.90
2022-08-25T12:24:50.306Z,2.80
2022-08-25T12:27:55.940Z,2.83
2022-08-25T12:35:13.908Z,2.70
2022-08-25T12:38:03.783Z,3.05
2022-08-25T12:40:36.291Z,2.83
2022-08-25T12:43:37.386Z,4.00
2022-08-25T12:46:23.288Z,3.45
2022-08-25T12:52:39.250Z,3.40
2022-08-25T12:59:20.275Z,3.13
2022-08-25T13:02:51.724Z,3.60
2022-08-25T13:05:48.366Z,3.10
2022-08-25T13:09:15.941Z,2.70
2022-08-25T13:16:07.311Z,2.78
2022-08-25T13:23:27.025Z,2.70
2022-08-25T13:25:58.873Z,2.80
2022-08-25T13:28:32.468Z,3.08
2022-08-25T13:35:52.351Z,2.70
2022-08-25T13:38:20.435Z,2.67
2022-08-25T13:40:48.206Z,3.00
2022-08-25T13:43:16.217Z,2.80
2022-08-25T13:50:22.804Z,2.88
2022-08-25T13:53:05.902Z,2.70
2022-08-25T13:55:59.485Z,2.97
2022-08-25T13:58:44.517Z,3.10
2022-08-25T14:01:44.082Z,3.00
2022-08-25T14:04:39.927Z,2.80
2022-08-25T14:07:21.888Z,3.20
2022-08-25T14:10:01.175Z,3.08
2022-08-25T14:12:39.544Z,3.00
2022-08-25T14:15:28.590Z,2.90
2022-08-25T14:18:20.931Z,3.20
2022-08-25T14:24:55.069Z,3.72
2022-08-25T14:27:22.616Z,3.33
2022-08-25T14:29:52.785Z,3.53
2022-08-25T14:32:20.361Z,3.35
2022-08-25T14:34:47.742Z,3.28
2022-08-25T14:37:20.125Z,3.33
2022-08-25T14:39:52.815Z,2.75
2022-08-25T14:42:20.660Z,2.90
2022-08-25T14:44:52.565Z,2.72
2022-08-25T14:47:19.926Z,3.00
2022-08-25T14:49:49.119Z,2.63
2022-08-25T14:56:16.254Z,2.67
2022-08-25T14:58:51.371Z,3.03
2022-08-25T15:01:29.193Z,3.00
2022-08-25T15:04:06.881Z,2.90
2022-08-25T15:18:32.025Z,2.65
2022-08-25T15:25:10.189Z,3.03
2022-08-25T15:27:37.773Z,3.50
2022-08-25T15:30:07.080Z,3.40
2022-08-25T15:32:34.547Z,3.05
2022-08-25T15:39:52.178Z,3.05
2022-08-25T15:42:19.716Z,3.45
2022-08-25T15:44:53.338Z,3.40
2022-08-25T15:47:22.572Z,2.75
2022-08-25T15:53:49.803Z,3.20
2022-08-25T15:56:17.048Z,3.30
2022-08-25T15:59:08.481Z,3.30
2022-08-25T16:01:36.382Z,3.30
2022-08-25T16:04:05.201Z,3.55
2022-08-25T16:06:33.902Z,3.13
2022-08-25T16:09:23.633Z,3.53
2022-08-25T16:11:56.752Z,3.20
2022-08-25T16:14:27.642Z,3.42
2022-08-25T16:16:58.046Z,3.40
2022-08-25T16:19:29.736Z,3.55
2022-08-25T16:21:59.033Z,3.35
2022-08-25T16:24:27.853Z,3.38
2022-08-25T16:26:55.818Z,2.97
2022-08-25T16:33:33.836Z,4.40
2022-08-25T16:36:10.128Z,3.50
2022-08-25T16:38:40.687Z,3.70
2022-08-25T16:41:13.042Z,3.70
2022-08-25T16:43:42.591Z,3.80
2022-08-25T16:50:19.874Z,3.67
2022-08-25T16:52:47.721Z,3.97
2022-08-25T16:55:16.947Z,4.03
2022-08-25T16:57:48.772Z,3.90
2022-08-25T17:00:21.754Z,3.55
2022-08-25T17:07:36.168Z,4.47
2022-08-25T17:10:07.410Z,3.85
2022-08-25T17:12:40.469Z,3.83
2022-08-25T17:20:00.032Z,3.83
2022-08-25T17:26:40.696Z,4.10
2022-08-25T17:32:51.029Z,4.30
2022-08-25T17:35:26.494Z,3.88
2022-08-25T17:51:46.964Z,3.90
2022-08-25T17:54:14.973Z,3.83
2022-08-25T18:00:34.755Z,4.18
2022-08-25T18:03:03.472Z,4.35
2022-08-25T18:05:33.530Z,3.78
2022-08-25T18:08:40.658Z,4.47
2022-08-25T18:11:08.622Z,3.20
2022-08-25T18:17:40.547Z,2.75
2022-08-25T18:23:59.837Z,2.50
2022-08-25T18:26:30.829Z,2.67
2022-08-25T18:29:00.028Z,2.72
2022-08-25T18:35:49.717Z,2.75
2022-08-25T18:38:17.014Z,2.58
2022-08-25T18:40:45.298Z,2.75
2022-08-25T18:51:32.848Z,3.05
2022-08-25T18:54:01.490Z,3.13
2022-08-25T18:56:29.986Z,3.05
2022-08-25T18:58:58.252Z,3.17
2022-08-25T19:09:32.951Z,3.10
2022-08-25T19:12:01.490Z,3.10
2022-08-25T19:15:05.030Z,3.38
2022-08-25T19:17:37.312Z,3.20
2022-08-25T19:20:11.151Z,3.13
2022-08-25T19:22:41.937Z,3.53
2022-08-25T19:33:01.277Z,2.67
2022-08-25T19:35:47.210Z,2.93
2022-08-25T19:42:37.224Z,3.17
2022-08-25T19:45:08.608Z,2.97
2022-08-25T19:51:52.153Z,3.20
2022-08-25T19:54:29.343Z,3.13
2022-08-25T19:56:57.351Z,3.40
2022-08-25T19:59:40.446Z,2.70
2022-08-25T20:02:19.322Z,3.20
2022-08-25T20:04:50.374Z,3.38
2022-08-25T20:11:28.973Z,4.20
2022-08-25T20:14:00.467Z,4.10
2022-08-25T20:16:30.893Z,3.67
2022-08-25T20:22:51.173Z,4.50
2022-08-25T20:26:08.417Z,4.40
2022-08-25T20:32:36.287Z,4.80
2022-08-25T20:35:09.028Z,5.50
2022-08-25T20:37:37.853Z,5.07
2022-08-25T20:40:07.817Z,6.10
2022-08-25T20:42:35.193Z,6.47
2022-08-25T20:45:07.854Z,5.03
2022-08-25T20:47:35.111Z,5.73
2022-08-25T20:50:06.575Z,5.60
2022-08-25T20:56:33.874Z,5.57
2022-08-25T20:59:01.176Z,4.40
2022-08-25T21:01:29.383Z,4.37
2022-08-25T21:03:56.905Z,4.17
2022-08-25T21:06:24.355Z,3.73
2022-08-25T21:08:52.244Z,3.30
2022-08-25T21:12:11.921Z,3.10
2022-08-25T21:14:53.510Z,2.83
2022-08-25T21:17:20.671Z,2.73
2022-08-25T21:22:16.268Z,3.73
2022-08-25T21:24:43.565Z,3.57
2022-08-25T21:27:12.035Z,3.20
2022-08-25T21:29:44.568Z,2.87
2022-08-25T21:32:17.885Z,3.30
2022-08-25T21:34:45.843Z,2.80
2022-08-25T21:37:14.585Z,3.33
2022-08-25T21:39:41.812Z,3.23
2022-08-25T21:44:41.081Z,4.03
2022-08-25T21:47:08.340Z,4.30
2022-08-25T21:49:37.377Z,5.13
2022-08-25T21:52:05.674Z,5.57
2022-08-25T21:54:33.171Z,9.40
2022-08-25T21:57:05.000Z,6.17
2022-08-25T21:59:36.687Z,5.87
2022-08-25T22:02:08.764Z,4.80
2022-08-25T22:04:38.880Z,5.00
2022-08-25T22:07:08.185Z,5.73
2022-08-25T22:09:36.550Z,8.13
2022-08-25T22:12:05.524Z,7.97
2022-08-25T22:14:34.708Z,7.23
2022-08-25T22:17:02.482Z,8.10
2022-08-25T22:20:00.883Z,8.37
2022-08-25T22:22:28.127Z,7.53
2022-08-25T22:24:55.350Z,7.50
2022-08-25T22:31:23.672Z,7.10
2022-08-25T22:33:52.407Z,7.67
2022-08-25T22:36:35.914Z,7.10
2022-08-25T22:39:06.621Z,6.47
2022-08-25T22:41:35.740Z,5.30
2022-08-25T22:44:09.227Z,4.50
2022-08-25T22:46:36.784Z,4.30
2022-08-25T22:49:03.994Z,4.03
2022-08-25T22:52:09.442Z,4.30
2022-08-25T22:58:40.436Z,4.27
2022-08-25T23:01:17.650Z,4.60
2022-08-25T23:07:54.857Z,4.07
2022-08-25T23:10:22.178Z,3.73
2022-08-25T23:16:49.663Z,5.03
2022-08-25T23:19:18.188Z,4.70
2022-08-25T23:25:56.022Z,3.93
2022-08-25T23:29:17.497Z,3.60
2022-08-25T23:32:35.523Z,3.50
2022-08-25T23:39:59.399Z,3.47
2022-08-25T23:42:26.643Z,4.00
2022-08-25T23:49:06.477Z,3.60
2022-08-25T23:51:38.109Z,3.70
